Time;durP1;ratioP1;P1;durP2;ratioP2;P2;SDS_P1;SDS_P2;PMS_P1;PMS_P2;Temp;Humidity;BMP_temperature;BMP_pressure;BME280_temperature;BME280_humidity;BME280_pressure;Samples;Min_cycle;Max_cycle;Signal;HPM_P1;HPM_P2
2021/11/28 00:00:46;;;;;;;45.25;23.80;;;;;;;;;;5113253;28;20078;-75
2021/11/28 00:03:17;;;;;;;46.33;25.40;;;;;;;;;;5096410;28;20055;-76
2021/11/28 00:05:46;;;;;;;43.67;23.73;;;;;;;;;;5116367;28;20059;-76
2021/11/28 00:08:35;;;;;;;48.92;25.42;;;;;;;;;;5096318;28;20051;-76
2021/11/28 00:11:17;;;;;;;46.45;23.63;;;;;;;;;;5111277;28;20050;-76
2021/11/28 00:16:16;;;;;;;47.13;22.45;;;;;;;;;;5114090;28;20094;-76
2021/11/28 00:18:42;;;;;;;53.88;25.88;;;;;;;;;;5112313;28;20054;-76
2021/11/28 00:21:08;;;;;;;42.95;23.05;;;;;;;;;;5116671;28;20050;-76
2021/11/28 00:23:34;;;;;;;50.30;24.73;;;;;;;;;;5115625;28;20107;-76
2021/11/28 00:26:00;;;;;;;52.45;26.35;;;;;;;;;;5109878;28;20046;-76
2021/11/28 00:28:26;;;;;;;50.90;24.90;;;;;;;;;;5114773;28;20054;-76
2021/11/28 00:30:52;;;;;;;51.38;25.33;;;;;;;;;;5095810;28;20048;-76
2021/11/28 00:33:19;;;;;;;56.00;26.23;;;;;;;;;;5097295;28;20047;-76
2021/11/28 00:35:46;;;;;;;59.33;26.05;;;;;;;;;;5098002;28;20040;-76
2021/11/28 00:38:12;;;;;;;67.70;28.35;;;;;;;;;;5092699;28;20039;-75
2021/11/28 00:40:38;;;;;;;51.05;25.58;;;;;;;;;;5105985;28;20064;-77
2021/11/28 00:43:04;;;;;;;47.75;25.02;;;;;;;;;;5088593;28;20090;-77
2021/11/28 00:45:30;;;;;;;52.47;23.98;;;;;;;;;;5110909;28;20046;-77
2021/11/28 00:47:57;;;;;;;44.45;23.67;;;;;;;;;;5097716;28;20055;-77
2021/11/28 00:52:49;;;;;;;54.25;27.15;;;;;;;;;;5113979;28;20123;-76
2021/11/28 00:55:15;;;;;;;52.08;23.75;;;;;;;;;;5099907;28;20043;-76
2021/11/28 00:57:41;;;;;;;47.65;24.50;;;;;;;;;;5096955;28;20043;-76
2021/11/28 01:00:08;;;;;;;56.53;25.33;;;;;;;;;;5114841;28;20042;-76
2021/11/28 01:02:35;;;;;;;46.63;24.20;;;;;;;;;;5117488;28;20122;-76
2021/11/28 01:05:01;;;;;;;44.83;22.63;;;;;;;;;;5100259;28;20051;-76
2021/11/28 01:07:28;;;;;;;45.17;22.88;;;;;;;;;;5096577;28;20064;-76
2021/11/28 01:09:54;;;;;;;42.50;22.88;;;;;;;;;;5118945;28;20051;-76
2021/11/28 01:12:21;;;;;;;44.08;23.52;;;;;;;;;;5099054;28;20060;-76
2021/11/28 01:14:48;;;;;;;44.55;22.30;;;;;;;;;;5111329;28;20032;-75
2021/11/28 01:17:14;;;;;;;42.35;21.98;;;;;;;;;;5106284;28;20040;-76
2021/11/28 01:19:40;;;;;;;42.22;21.73;;;;;;;;;;5118903;28;20399;-77
2021/11/28 01:22:08;;;;;;;39.65;21.92;;;;;;;;;;5116770;28;20044;-76
2021/11/28 01:24:34;;;;;;;41.33;22.13;;;;;;;;;;5099773;28;20078;-77
2021/11/28 01:27:01;;;;;;;38.05;22.10;;;;;;;;;;5115613;28;20465;-77
2021/11/28 01:29:27;;;;;;;42.40;23.42;;;;;;;;;;5104116;28;20039;-76
2021/11/28 01:31:54;;;;;;;46.83;23.75;;;;;;;;;;5097890;28;20055;-76
2021/11/28 01:34:20;;;;;;;44.22;22.45;;;;;;;;;;5114819;28;20093;-76
2021/11/28 01:36:46;;;;;;;48.05;23.65;;;;;;;;;;5118508;28;20063;-76
2021/11/28 01:39:12;;;;;;;40.22;21.75;;;;;;;;;;5092188;28;20098;-76
2021/11/28 01:41:39;;;;;;;43.25;23.48;;;;;;;;;;5114104;28;20519;-76
2021/11/28 01:44:06;;;;;;;45.45;22.08;;;;;;;;;;5110268;28;20124;-76
2021/11/28 01:46:33;;;;;;;48.30;25.15;;;;;;;;;;5113847;28;20051;-76
2021/11/28 01:48:59;;;;;;;45.03;24.10;;;;;;;;;;5103488;28;20040;-76
2021/11/28 01:51:25;;;;;;;39.22;23.27;;;;;;;;;;5112021;28;20108;-76
2021/11/28 01:53:52;;;;;;;48.92;25.55;;;;;;;;;;5119673;28;20036;-76
2021/11/28 01:56:19;;;;;;;41.03;23.98;;;;;;;;;;5100145;28;20040;-75
2021/11/28 01:58:45;;;;;;;50.70;23.85;;;;;;;;;;5116581;28;20115;-76
2021/11/28 02:01:15;;;;;;;49.65;24.50;;;;;;;;;;5113777;28;20043;-75
2021/11/28 02:03:42;;;;;;;46.17;23.67;;;;;;;;;;5114472;28;20051;-77
2021/11/28 02:06:13;;;;;;;47.75;22.73;;;;;;;;;;5115153;28;20040;-76
2021/11/28 02:08:40;;;;;;;49.80;25.05;;;;;;;;;;5096836;28;20047;-75
2021/11/28 02:11:06;;;;;;;44.63;24.70;;;;;;;;;;5117731;28;20051;-73
2021/11/28 02:13:33;;;;;;;41.20;22.98;;;;;;;;;;5100423;28;20306;-75
2021/11/28 02:15:59;;;;;;;49.33;23.92;;;;;;;;;;5095849;28;20047;-75
2021/11/28 02:18:26;;;;;;;46.25;21.98;;;;;;;;;;5103361;28;20040;-76
2021/11/28 02:20:53;;;;;;;42.47;22.38;;;;;;;;;;5099845;28;20444;-75
2021/11/28 02:23:20;;;;;;;45.55;23.40;;;;;;;;;;5094780;28;20047;-75
2021/11/28 02:25:47;;;;;;;48.30;24.48;;;;;;;;;;5099612;28;20047;-75
2021/11/28 02:28:13;;;;;;;46.30;25.05;;;;;;;;;;5099825;28;20052;-75
2021/11/28 02:30:39;;;;;;;50.38;24.30;;;;;;;;;;5077679;28;20065;-75
2021/11/28 02:33:05;;;;;;;49.53;25.27;;;;;;;;;;5098983;28;20107;-74
2021/11/28 02:35:34;;;;;;;48.47;23.40;;;;;;;;;;5117497;28;20065;-74
2021/11/28 02:38:01;;;;;;;47.60;24.40;;;;;;;;;;5097351;28;20130;-74
2021/11/28 02:40:27;;;;;;;49.13;25.77;;;;;;;;;;5111953;28;20055;-75
2021/11/28 02:42:54;;;;;;;49.35;27.20;;;;;;;;;;5114073;28;20061;-75
2021/11/28 02:45:21;;;;;;;54.88;26.50;;;;;;;;;;5097157;28;20043;-75
2021/11/28 02:47:48;;;;;;;56.73;28.43;;;;;;;;;;5116590;28;20764;-75
2021/11/28 02:50:15;;;;;;;55.40;27.50;;;;;;;;;;5117950;28;20043;-75
2021/11/28 02:52:42;;;;;;;59.17;28.35;;;;;;;;;;5098830;28;20051;-75
2021/11/28 02:55:08;;;;;;;61.83;26.98;;;;;;;;;;5114374;28;20186;-75
2021/11/28 02:57:34;;;;;;;57.13;26.92;;;;;;;;;;5115946;28;20054;-75
2021/11/28 03:00:00;;;;;;;53.60;28.45;;;;;;;;;;5095007;28;20095;-75
2021/11/28 03:02:26;;;;;;;61.13;28.13;;;;;;;;;;5109699;28;20058;-75
2021/11/28 03:04:53;;;;;;;58.20;27.80;;;;;;;;;;5095270;28;20154;-75
2021/11/28 03:07:20;;;;;;;67.03;29.90;;;;;;;;;;5099899;28;20032;-75
2021/11/28 03:09:46;;;;;;;70.20;30.80;;;;;;;;;;5117766;28;20426;-75
2021/11/28 03:12:13;;;;;;;71.20;28.88;;;;;;;;;;5113754;28;20040;-75
2021/11/28 03:14:39;;;;;;;72.95;30.17;;;;;;;;;;5115710;28;20067;-75
2021/11/28 03:17:06;;;;;;;70.43;30.77;;;;;;;;;;5097991;28;20047;-76
2021/11/28 03:19:32;;;;;;;74.32;31.33;;;;;;;;;;5108602;28;20185;-74
2021/11/28 03:21:58;;;;;;;94.05;32.90;;;;;;;;;;5115360;28;20131;-75
2021/11/28 03:24:24;;;;;;;86.65;33.50;;;;;;;;;;5092947;28;20074;-75
2021/11/28 03:26:52;;;;;;;82.68;32.38;;;;;;;;;;5111699;28;20093;-75
2021/11/28 03:29:19;;;;;;;91.05;33.88;;;;;;;;;;5113269;28;20051;-74
2021/11/28 03:31:51;;;;;;;88.30;33.95;;;;;;;;;;5091840;28;20036;-75
2021/11/28 03:34:18;;;;;;;90.68;33.00;;;;;;;;;;5111003;28;20040;-75
2021/11/28 03:36:49;;;;;;;87.35;31.67;;;;;;;;;;5096042;28;20043;-74
2021/11/28 03:39:26;;;;;;;88.88;32.08;;;;;;;;;;5129362;27;1252716;-74
2021/11/28 03:41:55;;;;;;;90.60;33.10;;;;;;;;;;5160449;27;20078;-74
2021/11/28 03:44:21;;;;;;;96.10;33.55;;;;;;;;;;5143297;27;20114;-73
2021/11/28 03:46:47;;;;;;;96.40;37.05;;;;;;;;;;5159969;27;20067;-75
2021/11/28 03:49:13;;;;;;;111.57;37.85;;;;;;;;;;5143787;27;20043;-74
2021/11/28 03:51:39;;;;;;;103.35;37.65;;;;;;;;;;5162347;27;20045;-74
2021/11/28 03:54:06;;;;;;;99.65;34.88;;;;;;;;;;5161608;27;20071;-74
2021/11/28 03:56:32;;;;;;;96.53;35.92;;;;;;;;;;5161642;27;20537;-74
2021/11/28 03:58:58;;;;;;;107.45;38.08;;;;;;;;;;5142539;27;22084;-74
2021/11/28 04:01:24;;;;;;;112.18;35.58;;;;;;;;;;5142544;27;20059;-73
2021/11/28 04:03:51;;;;;;;109.47;37.00;;;;;;;;;;5161378;27;20031;-73
2021/11/28 04:06:19;;;;;;;113.85;38.47;;;;;;;;;;5125443;27;20072;-74
2021/11/28 04:08:45;;;;;;;111.00;37.78;;;;;;;;;;5161366;27;20043;-73
2021/11/28 04:11:11;;;;;;;117.97;36.55;;;;;;;;;;5142477;27;20053;-74
2021/11/28 04:13:37;;;;;;;125.35;38.45;;;;;;;;;;5158180;27;20039;-74
2021/11/28 04:16:03;;;;;;;114.75;37.50;;;;;;;;;;5158903;27;20031;-74
2021/11/28 04:18:30;;;;;;;118.93;36.42;;;;;;;;;;5161321;27;20043;-73
2021/11/28 04:20:56;;;;;;;112.75;36.08;;;;;;;;;;5162564;27;20042;-74
2021/11/28 04:23:22;;;;;;;112.97;36.50;;;;;;;;;;5161372;27;20046;-74
2021/11/28 04:25:48;;;;;;;119.22;37.83;;;;;;;;;;5160420;27;20077;-74
2021/11/28 04:28:15;;;;;;;121.07;39.53;;;;;;;;;;5158103;27;20054;-74
2021/11/28 04:30:41;;;;;;;122.53;37.95;;;;;;;;;;5161805;27;21607;-74
2021/11/28 04:33:07;;;;;;;107.30;37.22;;;;;;;;;;5143727;27;20046;-74
2021/11/28 04:35:34;;;;;;;122.18;37.33;;;;;;;;;;5162005;27;20042;-74
2021/11/28 04:38:00;;;;;;;124.32;36.95;;;;;;;;;;5161506;27;20058;-74
2021/11/28 04:40:26;;;;;;;107.70;34.95;;;;;;;;;;5142293;27;20412;-74
2021/11/28 04:42:52;;;;;;;108.50;34.08;;;;;;;;;;5161573;27;20039;-74
2021/11/28 04:45:18;;;;;;;105.65;37.55;;;;;;;;;;5161379;27;20050;-73
2021/11/28 04:47:44;;;;;;;131.05;39.30;;;;;;;;;;5162678;27;20054;-74
2021/11/28 04:50:12;;;;;;;134.35;36.58;;;;;;;;;;5151065;27;20063;-74
2021/11/28 04:52:38;;;;;;;102.97;32.92;;;;;;;;;;5145961;27;20035;-74
2021/11/28 04:55:06;;;;;;;136.18;36.80;;;;;;;;;;5145129;27;20035;-74
2021/11/28 04:57:32;;;;;;;126.78;34.35;;;;;;;;;;5146948;27;20035;-74
2021/11/28 04:59:58;;;;;;;122.65;33.75;;;;;;;;;;5147276;27;20038;-73
2021/11/28 05:02:24;;;;;;;136.65;36.15;;;;;;;;;;5147594;27;20043;-74
2021/11/28 05:04:50;;;;;;;136.25;33.83;;;;;;;;;;5146430;27;20039;-74
2021/11/28 05:07:16;;;;;;;136.80;35.72;;;;;;;;;;5145940;27;20046;-74
2021/11/28 05:09:42;;;;;;;125.53;34.33;;;;;;;;;;5146912;27;20043;-74
2021/11/28 05:12:09;;;;;;;187.82;37.65;;;;;;;;;;5145798;27;20047;-73
2021/11/28 05:14:35;;;;;;;245.85;40.38;;;;;;;;;;5141781;27;20043;-73
2021/11/28 05:17:01;;;;;;;253.05;39.38;;;;;;;;;;5145483;27;20038;-74
2021/11/28 05:19:27;;;;;;;295.42;42.38;;;;;;;;;;5146912;27;20043;-74
2021/11/28 05:21:53;;;;;;;159.48;36.53;;;;;;;;;;5145987;27;20046;-74
2021/11/28 05:24:19;;;;;;;169.57;39.63;;;;;;;;;;5145989;27;20050;-73
2021/11/28 05:26:45;;;;;;;116.53;33.72;;;;;;;;;;5146360;27;20035;-74
2021/11/28 05:29:14;;;;;;;123.93;34.08;;;;;;;;;;5146136;27;20043;-74
2021/11/28 05:31:40;;;;;;;122.65;33.22;;;;;;;;;;5147128;27;20179;-74
2021/11/28 05:34:06;;;;;;;121.38;34.30;;;;;;;;;;5147131;27;20053;-74
2021/11/28 05:36:32;;;;;;;98.15;30.85;;;;;;;;;;5145182;27;20047;-74
2021/11/28 05:38:59;;;;;;;136.10;33.35;;;;;;;;;;5126080;27;20106;-72
2021/11/28 05:41:25;;;;;;;98.28;31.60;;;;;;;;;;5145825;27;20047;-74
2021/11/28 05:43:51;;;;;;;106.55;30.60;;;;;;;;;;5129078;27;20046;-74
2021/11/28 05:46:18;;;;;;;99.88;29.38;;;;;;;;;;5146386;27;20043;-74
2021/11/28 05:48:44;;;;;;;99.32;30.65;;;;;;;;;;5145987;27;20039;-74
2021/11/28 05:51:10;;;;;;;87.82;26.77;;;;;;;;;;5146061;27;20376;-73
2021/11/28 05:53:36;;;;;;;76.72;27.13;;;;;;;;;;5146034;27;20063;-73
2021/11/28 05:56:02;;;;;;;68.40;23.88;;;;;;;;;;5145440;27;20043;-74
2021/11/28 05:58:28;;;;;;;67.47;23.85;;;;;;;;;;5146626;27;20043;-74
2021/11/28 06:00:55;;;;;;;68.72;23.08;;;;;;;;;;5145317;27;20046;-74
2021/11/28 06:03:21;;;;;;;63.17;22.38;;;;;;;;;;5145050;27;20043;-74
2021/11/28 06:05:47;;;;;;;73.60;24.20;;;;;;;;;;5127533;27;20502;-73
2021/11/28 06:08:13;;;;;;;66.85;22.58;;;;;;;;;;5141833;27;20513;-74
2021/11/28 06:10:39;;;;;;;55.08;20.67;;;;;;;;;;5125647;27;20074;-74
2021/11/28 06:13:05;;;;;;;65.82;22.83;;;;;;;;;;5144687;27;20042;-74
2021/11/28 06:15:32;;;;;;;58.35;22.17;;;;;;;;;;5143955;27;20050;-74
2021/11/28 06:17:58;;;;;;;58.65;21.70;;;;;;;;;;5144229;27;20154;-73
2021/11/28 06:20:24;;;;;;;57.25;22.10;;;;;;;;;;5145506;27;20043;-74
2021/11/28 06:22:52;;;;;;;65.50;22.15;;;;;;;;;;5143534;27;20468;-74
2021/11/28 06:25:18;;;;;;;57.30;21.52;;;;;;;;;;5126343;27;20062;-74
2021/11/28 06:27:44;;;;;;;55.78;21.60;;;;;;;;;;5144693;27;20038;-73
2021/11/28 06:30:11;;;;;;;55.20;21.38;;;;;;;;;;5144768;27;20039;-74
2021/11/28 06:32:37;;;;;;;68.55;21.58;;;;;;;;;;5143946;27;20046;-73
2021/11/28 06:35:04;;;;;;;61.40;21.23;;;;;;;;;;5144206;27;20036;-73
2021/11/28 06:37:30;;;;;;;55.20;22.05;;;;;;;;;;5142916;27;20187;-72
2021/11/28 06:39:56;;;;;;;54.95;21.55;;;;;;;;;;5144489;27;20035;-73
2021/11/28 06:42:22;;;;;;;52.22;20.92;;;;;;;;;;5144229;27;20039;-74
2021/11/28 06:44:48;;;;;;;48.88;18.88;;;;;;;;;;5144128;27;20047;-73
2021/11/28 06:47:14;;;;;;;50.15;18.45;;;;;;;;;;5126144;27;20077;-73
2021/11/28 06:49:41;;;;;;;45.80;18.48;;;;;;;;;;5143101;27;20103;-74
2021/11/28 06:52:07;;;;;;;39.45;16.58;;;;;;;;;;5141291;27;20614;-74
2021/11/28 06:54:34;;;;;;;39.95;15.65;;;;;;;;;;5144169;27;20039;-73
2021/11/28 06:57:00;;;;;;;39.28;16.88;;;;;;;;;;5143129;27;20585;-74
2021/11/28 06:59:26;;;;;;;37.13;14.50;;;;;;;;;;5126912;27;20043;-73
2021/11/28 07:01:52;;;;;;;34.15;13.80;;;;;;;;;;5144999;27;20045;-73
2021/11/28 07:04:18;;;;;;;26.83;11.40;;;;;;;;;;5143883;27;20043;-74
2021/11/28 07:06:45;;;;;;;26.45;10.25;;;;;;;;;;5145158;27;20067;-74
2021/11/28 07:09:11;;;;;;;25.02;10.25;;;;;;;;;;5144814;27;20039;-74
2021/11/28 07:11:37;;;;;;;19.52;9.68;;;;;;;;;;5143169;27;20049;-74
2021/11/28 07:14:03;;;;;;;18.92;8.73;;;;;;;;;;5123883;27;20039;-73
2021/11/28 07:16:29;;;;;;;20.75;8.25;;;;;;;;;;5143867;27;20067;-74
2021/11/28 07:18:55;;;;;;;17.75;8.45;;;;;;;;;;5141533;27;20042;-75
2021/11/28 07:21:21;;;;;;;21.00;9.40;;;;;;;;;;5143938;27;20039;-74
2021/11/28 07:23:47;;;;;;;22.17;9.25;;;;;;;;;;5126426;27;20114;-74
2021/11/28 07:26:14;;;;;;;21.60;9.88;;;;;;;;;;5143021;27;20043;-74
2021/11/28 07:28:40;;;;;;;17.38;8.85;;;;;;;;;;5143771;27;20039;-74
2021/11/28 07:31:07;;;;;;;25.95;8.95;;;;;;;;;;5144319;27;20066;-74
2021/11/28 07:33:36;;;;;;;14.68;7.88;;;;;;;;;;5145184;27;20039;-74
2021/11/28 07:36:03;;;;;;;16.52;8.45;;;;;;;;;;5143977;28;20043;-74
2021/11/28 07:38:29;;;;;;;13.20;7.82;;;;;;;;;;5143477;28;20051;-73
2021/11/28 07:40:55;;;;;;;13.20;7.50;;;;;;;;;;5143855;28;20039;-73
2021/11/28 07:43:21;;;;;;;14.52;8.00;;;;;;;;;;5144943;28;20051;-74
2021/11/28 07:45:47;;;;;;;19.25;7.35;;;;;;;;;;5144819;28;20091;-73
2021/11/28 07:48:14;;;;;;;14.07;6.60;;;;;;;;;;5143989;28;20039;-73
2021/11/28 07:50:40;;;;;;;16.55;6.53;;;;;;;;;;5144068;28;20515;-73
2021/11/28 07:53:06;;;;;;;12.18;6.57;;;;;;;;;;5143596;28;20043;-73
2021/11/28 07:55:32;;;;;;;10.85;6.10;;;;;;;;;;5144306;28;20099;-73
2021/11/28 07:57:59;;;;;;;10.43;6.32;;;;;;;;;;5145006;28;20047;-73
2021/11/28 08:00:25;;;;;;;13.55;6.63;;;;;;;;;;5141482;28;20513;-73
2021/11/28 08:02:51;;;;;;;12.00;6.53;;;;;;;;;;5143848;28;20039;-73
2021/11/28 08:05:18;;;;;;;11.90;6.55;;;;;;;;;;5142580;28;20043;-73
2021/11/28 08:07:44;;;;;;;14.52;7.60;;;;;;;;;;5143276;28;20039;-73
2021/11/28 08:10:10;;;;;;;11.77;6.95;;;;;;;;;;5144258;28;20039;-73
2021/11/28 08:12:36;;;;;;;12.85;6.90;;;;;;;;;;5145121;28;20055;-74
2021/11/28 08:15:05;;;;;;;12.80;6.38;;;;;;;;;;5144588;28;20064;-74
2021/11/28 08:17:34;;;;;;;12.40;7.38;;;;;;;;;;5126324;28;20065;-73
2021/11/28 08:20:00;;;;;;;9.55;6.25;;;;;;;;;;5125740;28;20244;-76
2021/11/28 08:22:26;;;;;;;11.10;6.82;;;;;;;;;;5122950;28;20106;-75
2021/11/28 08:24:52;;;;;;;12.88;6.75;;;;;;;;;;5145057;27;20036;-76
2021/11/28 08:27:19;;;;;;;12.52;7.07;;;;;;;;;;5148270;27;20043;-76
2021/11/28 08:29:45;;;;;;;11.05;6.45;;;;;;;;;;5147864;27;20050;-75
2021/11/28 08:32:11;;;;;;;11.02;7.03;;;;;;;;;;5144960;27;20384;-76
2021/11/28 08:34:38;;;;;;;11.65;6.63;;;;;;;;;;5148650;27;20043;-77
2021/11/28 08:37:05;;;;;;;13.63;6.53;;;;;;;;;;5146990;27;20479;-76
2021/11/28 08:39:31;;;;;;;9.90;6.60;;;;;;;;;;5146858;27;20368;-76
2021/11/28 08:41:57;;;;;;;11.77;6.07;;;;;;;;;;5145339;27;20043;-77
2021/11/28 08:44:23;;;;;;;17.48;7.53;;;;;;;;;;5147119;27;20422;-77
2021/11/28 08:46:50;;;;;;;11.05;6.50;;;;;;;;;;5128998;27;20042;-77
2021/11/28 08:49:17;;;;;;;10.00;5.40;;;;;;;;;;5146791;27;20053;-76
2021/11/28 08:51:43;;;;;;;10.00;5.15;;;;;;;;;;5128760;27;20039;-76
2021/11/28 08:54:13;;;;;;;11.18;5.25;;;;;;;;;;5127024;27;20154;-76
2021/11/28 08:56:43;;;;;;;6.68;3.95;;;;;;;;;;5146050;27;20050;-77
2021/11/28 08:59:09;;;;;;;6.05;4.28;;;;;;;;;;5146399;27;20046;-77
2021/11/28 09:01:37;;;;;;;8.90;5.07;;;;;;;;;;5127547;27;20139;-77
2021/11/28 09:04:03;;;;;;;7.10;4.60;;;;;;;;;;5128417;27;20039;-78
2021/11/28 09:06:29;;;;;;;6.35;3.75;;;;;;;;;;5104326;28;20052;-76
2021/11/28 09:08:55;;;;;;;9.48;4.28;;;;;;;;;;5147765;27;20040;-77
2021/11/28 09:11:22;;;;;;;7.80;4.20;;;;;;;;;;5146842;27;20149;-77
2021/11/28 09:13:48;;;;;;;6.68;3.60;;;;;;;;;;5147134;27;20043;-77
2021/11/28 09:16:14;;;;;;;4.20;2.65;;;;;;;;;;5127087;27;20090;-76
2021/11/28 09:18:45;;;;;;;3.30;1.98;;;;;;;;;;5126806;27;20055;-76
2021/11/28 09:21:15;;;;;;;2.90;1.85;;;;;;;;;;5123654;27;20054;-76
2021/11/28 09:26:34;;;;;;;1.90;1.55;;;;;;;;;;5121117;27;20043;-76
2021/11/28 09:29:01;;;;;;;2.28;1.10;;;;;;;;;;5128665;27;20062;-77
2021/11/28 09:31:29;;;;;;;3.83;1.35;;;;;;;;;;5146026;27;20039;-76
2021/11/28 09:33:56;;;;;;;2.00;0.98;;;;;;;;;;5111104;27;20077;-77
2021/11/28 09:36:24;;;;;;;1.67;0.85;;;;;;;;;;5144691;27;20047;-77
2021/11/28 09:38:50;;;;;;;1.27;0.68;;;;;;;;;;5147097;27;20055;-76
2021/11/28 09:41:17;;;;;;;2.38;0.90;;;;;;;;;;5145294;27;20035;-76
2021/11/28 09:43:48;;;;;;;2.05;0.90;;;;;;;;;;5122751;27;20043;-76
2021/11/28 09:46:15;;;;;;;0.95;0.68;;;;;;;;;;5137373;27;20055;-77
2021/11/28 09:48:42;;;;;;;3.83;0.70;;;;;;;;;;5138037;27;20053;-75
2021/11/28 09:51:09;;;;;;;2.42;0.70;;;;;;;;;;5131319;27;20046;-77
2021/11/28 09:53:37;;;;;;;2.28;0.75;;;;;;;;;;5134121;27;20086;-75
2021/11/28 09:56:04;;;;;;;1.00;0.70;;;;;;;;;;5138437;27;20042;-75
2021/11/28 09:58:30;;;;;;;3.05;1.20;;;;;;;;;;5137027;27;20140;-76
2021/11/28 10:00:57;;;;;;;1.50;1.17;;;;;;;;;;5114622;27;20084;-76
2021/11/28 10:03:23;;;;;;;3.33;1.00;;;;;;;;;;5147563;27;20043;-76
2021/11/28 10:05:51;;;;;;;1.85;1.10;;;;;;;;;;5145406;27;20090;-76
2021/11/28 10:08:17;;;;;;;1.50;0.75;;;;;;;;;;5126379;27;20065;-77
2021/11/28 10:10:45;;;;;;;1.95;0.95;;;;;;;;;;5121434;27;20478;-77
2021/11/28 10:13:12;;;;;;;1.58;1.00;;;;;;;;;;5140659;27;20126;-77
2021/11/28 10:15:38;;;;;;;0.80;0.50;;;;;;;;;;5119815;27;20081;-69
2021/11/28 10:18:09;;;;;;;1.88;0.63;;;;;;;;;;5139847;27;20524;-69
2021/11/28 10:20:38;;;;;;;2.80;0.60;;;;;;;;;;5144196;27;20050;-65
2021/11/28 10:23:04;;;;;;;3.15;0.80;;;;;;;;;;5141054;27;20073;-65
2021/11/28 10:25:31;;;;;;;0.73;0.50;;;;;;;;;;5142589;27;20047;-72
2021/11/28 10:28:05;;;;;;;3.25;0.60;;;;;;;;;;5126761;27;20066;-69
2021/11/28 10:30:31;;;;;;;2.42;0.52;;;;;;;;;;5141135;27;20054;-70
2021/11/28 10:33:09;;;;;;;2.67;0.57;;;;;;;;;;5141229;27;20054;-67
2021/11/28 10:35:35;;;;;;;3.63;0.63;;;;;;;;;;5126248;27;20071;-70
2021/11/28 10:38:10;;;;;;;0.85;0.55;;;;;;;;;;5125391;27;20073;-65
2021/11/28 10:40:36;;;;;;;2.83;0.40;;;;;;;;;;5142955;27;20039;-69
2021/11/28 10:43:08;;;;;;;3.00;0.57;;;;;;;;;;5124977;27;20043;-67
2021/11/28 10:45:38;;;;;;;1.27;0.50;;;;;;;;;;5141408;27;20057;-65
2021/11/28 10:48:07;;;;;;;4.78;0.82;;;;;;;;;;5142629;27;20039;-64
2021/11/28 10:50:34;;;;;;;7.22;0.90;;;;;;;;;;5144863;27;20192;-68
2021/11/28 10:53:03;;;;;;;2.25;0.70;;;;;;;;;;5144310;27;20477;-65
2021/11/28 10:55:34;;;;;;;0.90;0.80;;;;;;;;;;5142760;27;20181;-67
2021/11/28 10:58:05;;;;;;;2.63;0.63;;;;;;;;;;5141001;27;20069;-65
2021/11/28 11:00:31;;;;;;;3.42;1.52;;;;;;;;;;5143673;27;20043;-65
2021/11/28 11:02:57;;;;;;;2.95;1.70;;;;;;;;;;5141017;27;20043;-63
2021/11/28 11:05:25;;;;;;;5.28;1.60;;;;;;;;;;5143382;27;20064;-64
2021/11/28 11:07:54;;;;;;;2.75;1.98;;;;;;;;;;5144653;27;20074;-63
2021/11/28 11:10:30;;;;;;;3.53;2.65;;;;;;;;;;5126958;27;20450;-62
2021/11/28 11:12:57;;;;;;;3.30;1.92;;;;;;;;;;5132938;27;20043;-63
2021/11/28 11:15:31;;;;;;;3.00;0.70;;;;;;;;;;5142563;27;20090;-65
2021/11/28 11:17:58;;;;;;;0.93;0.60;;;;;;;;;;5139157;27;20047;-66
2021/11/28 11:20:25;;;;;;;3.05;1.00;;;;;;;;;;5141742;27;20875;-66
2021/11/28 11:22:51;;;;;;;1.30;0.60;;;;;;;;;;5123432;27;20050;-65
2021/11/28 11:25:19;;;;;;;7.78;1.35;;;;;;;;;;5141709;27;20043;-78
2021/11/28 11:27:46;;;;;;;4.20;1.50;;;;;;;;;;5139022;27;20073;-77
2021/11/28 11:30:28;;;;;;;5.03;0.70;;;;;;;;;;5137198;27;20051;-66
2021/11/28 11:32:57;;;;;;;2.47;0.70;;;;;;;;;;5134385;27;20111;-66
2021/11/28 11:35:30;;;;;;;1.75;0.68;;;;;;;;;;5120429;27;20067;-66
2021/11/28 11:37:59;;;;;;;5.38;0.80;;;;;;;;;;5136780;28;20696;-65
2021/11/28 11:40:25;;;;;;;2.53;0.57;;;;;;;;;;5137329;28;20054;-65
2021/11/28 11:42:52;;;;;;;3.15;0.80;;;;;;;;;;5134680;28;20039;-64
2021/11/28 11:45:19;;;;;;;5.57;0.90;;;;;;;;;;5137189;28;20061;-65
2021/11/28 11:47:46;;;;;;;2.65;0.90;;;;;;;;;;5136652;28;20071;-64
2021/11/28 11:50:14;;;;;;;5.68;0.93;;;;;;;;;;5137832;28;20088;-63
2021/11/28 11:52:40;;;;;;;2.03;0.50;;;;;;;;;;5136017;28;20036;-63
2021/11/28 11:55:08;;;;;;;4.47;0.77;;;;;;;;;;5137599;28;20068;-63
2021/11/28 11:57:53;;;;;;;2.47;0.75;;;;;;;;;;5131908;28;20050;-63
2021/11/28 12:00:38;;;;;;;4.35;0.50;;;;;;;;;;5138559;27;20054;-65
2021/11/28 12:03:14;;;;;;;3.95;1.10;;;;;;;;;;5137799;27;20039;-67
2021/11/28 12:05:45;;;;;;;2.80;0.85;;;;;;;;;;5138428;27;20050;-67
2021/11/28 12:08:14;;;;;;;5.43;1.05;;;;;;;;;;5141044;27;20051;-64
2021/11/28 12:10:46;;;;;;;3.67;0.77;;;;;;;;;;5140148;27;20043;-65
2021/11/28 12:13:14;;;;;;;7.28;0.80;;;;;;;;;;5143210;27;20047;-65
2021/11/28 12:15:42;;;;;;;;;;;;;;;;;;5147040;27;20039;-64
2021/11/28 12:18:08;;;;;;;2.30;0.70;;;;;;;;;;5124221;27;19923;-67
2021/11/28 12:20:43;;;;;;;3.22;1.00;;;;;;;;;;5142688;27;20043;-66
2021/11/28 12:23:12;;;;;;;3.33;1.23;;;;;;;;;;5143362;27;20054;-65
2021/11/28 12:25:43;;;;;;;4.95;1.40;;;;;;;;;;5139441;27;20553;-64
2021/11/28 12:28:21;;;;;;;3.05;0.70;;;;;;;;;;5139929;27;20092;-64
2021/11/28 12:30:52;;;;;;;3.38;0.65;;;;;;;;;;5139937;27;20047;-65
2021/11/28 12:33:18;;;;;;;1.83;0.80;;;;;;;;;;5138012;27;20398;-65
2021/11/28 12:35:44;;;;;;;2.92;1.00;;;;;;;;;;5139166;27;20054;-65
2021/11/28 12:38:10;;;;;;;1.38;0.80;;;;;;;;;;5117654;27;20061;-64
2021/11/28 12:40:40;;;;;;;1.85;0.60;;;;;;;;;;5120249;27;20119;-65
2021/11/28 12:43:17;;;;;;;4.28;0.70;;;;;;;;;;5122392;27;20047;-64
2021/11/28 12:45:43;;;;;;;2.55;0.80;;;;;;;;;;5121128;27;20058;-63
2021/11/28 12:48:17;;;;;;;3.90;0.90;;;;;;;;;;5138174;27;20043;-66
2021/11/28 12:50:58;;;;;;;2.55;0.70;;;;;;;;;;5139489;27;20043;-64
2021/11/28 12:53:43;;;;;;;2.45;0.77;;;;;;;;;;5139889;27;20057;-70
2021/11/28 12:56:12;;;;;;;2.60;0.75;;;;;;;;;;5139376;27;20043;-68
2021/11/28 12:58:59;;;;;;;2.90;0.90;;;;;;;;;;5121458;27;20057;-67
2021/11/28 13:01:43;;;;;;;1.73;0.80;;;;;;;;;;5124006;27;20050;-67
2021/11/28 13:04:29;;;;;;;6.03;1.30;;;;;;;;;;5135922;27;20039;-67
2021/11/28 13:07:14;;;;;;;6.85;1.13;;;;;;;;;;5139314;27;20069;-68
2021/11/28 13:09:40;;;;;;;2.50;0.70;;;;;;;;;;5140197;27;20039;-68
2021/11/28 13:12:07;;;;;;;3.28;0.60;;;;;;;;;;5139821;27;20051;-67
2021/11/28 13:14:33;;;;;;;3.90;0.80;;;;;;;;;;5123903;27;20108;-67
2021/11/28 13:17:00;;;;;;;4.25;0.68;;;;;;;;;;5142678;27;20129;-69
2021/11/28 13:19:26;;;;;;;2.13;0.90;;;;;;;;;;5126750;27;20049;-69
2021/11/28 13:21:52;;;;;;;5.95;0.90;;;;;;;;;;5146498;27;20379;-67
2021/11/28 13:24:26;;;;;;;6.22;1.08;;;;;;;;;;5144673;27;20047;-64
2021/11/28 13:26:56;;;;;;;7.32;1.48;;;;;;;;;;5127289;27;20049;-67
2021/11/28 13:29:23;;;;;;;3.63;0.90;;;;;;;;;;5145294;27;20082;-66
2021/11/28 13:31:52;;;;;;;4.20;0.80;;;;;;;;;;5128066;27;20490;-67
2021/11/28 13:34:18;;;;;;;5.28;0.77;;;;;;;;;;5145627;27;20293;-64
2021/11/28 13:36:48;;;;;;;4.18;0.98;;;;;;;;;;5144422;27;20051;-65
2021/11/28 13:39:19;;;;;;;2.00;0.75;;;;;;;;;;5145384;27;20772;-64
2021/11/28 13:41:46;;;;;;;3.72;0.80;;;;;;;;;;5146208;27;20063;-62
2021/11/28 13:44:15;;;;;;;4.70;0.88;;;;;;;;;;5146472;27;20073;-65
2021/11/28 13:46:47;;;;;;;1.67;1.00;;;;;;;;;;5142216;27;20054;-65
2021/11/28 13:49:18;;;;;;;5.65;1.38;;;;;;;;;;5144164;27;20108;-62
2021/11/28 13:51:44;;;;;;;2.35;0.80;;;;;;;;;;5146818;27;20043;-62
2021/11/28 13:54:12;;;;;;;1.85;0.80;;;;;;;;;;5143118;27;20039;-63
2021/11/28 13:56:42;;;;;;;3.83;1.48;;;;;;;;;;5142850;27;20075;-62
2021/11/28 13:59:09;;;;;;;2.38;1.05;;;;;;;;;;5144614;27;20068;-63
2021/11/28 14:01:35;;;;;;;6.32;1.23;;;;;;;;;;5141585;27;20065;-65
2021/11/28 14:04:01;;;;;;;10.73;1.20;;;;;;;;;;5145020;27;20035;-66
2021/11/28 14:06:27;;;;;;;5.55;1.30;;;;;;;;;;5128090;27;20047;-71
2021/11/28 14:08:53;;;;;;;7.90;0.93;;;;;;;;;;5143074;27;20055;-65
2021/11/28 14:11:20;;;;;;;0.82;0.40;;;;;;;;;;5141156;27;20557;-67
2021/11/28 14:13:47;;;;;;;10.15;1.17;;;;;;;;;;5141768;27;20039;-66
2021/11/28 14:16:13;;;;;;;4.00;0.63;;;;;;;;;;5142654;27;20035;-67
2021/11/28 14:18:43;;;;;;;4.10;0.57;;;;;;;;;;5145932;27;20094;-68
2021/11/28 14:21:09;;;;;;;0.50;0.40;;;;;;;;;;5141417;27;20038;-62
2021/11/28 14:23:35;;;;;;;5.95;0.80;;;;;;;;;;5140293;27;20043;-70
2021/11/28 14:26:02;;;;;;;1.10;0.50;;;;;;;;;;5144567;27;20043;-65
2021/11/28 14:28:31;;;;;;;3.03;0.60;;;;;;;;;;5145955;27;20058;-68
2021/11/28 14:30:59;;;;;;;3.20;0.77;;;;;;;;;;5144006;27;20039;-67
2021/11/28 14:33:29;;;;;;;1.27;0.70;;;;;;;;;;5145396;27;20456;-68
2021/11/28 14:36:05;;;;;;;2.72;0.70;;;;;;;;;;5127161;27;20087;-70